Versailles, Connecticut
Current Conditions -  °F | °C
As of 3:52 AM on Friday 28 Nov 2014 (Local Time) from KIJD Reporting Station
Overcast Overcast  
Wind Chill: 25°   Ceiling: 5500
Heat Index: 31°   Visibility: 10mi
Dew Point: 25°   Wind: 6mph
Humidity: 79%   Direction: 310°NW
Pressure: 30.02"   Gusts: NA
Location:  41.6°N, 72.04°W
Report Text: KIJD 280852Z AUTO 31005KT 10SM OVC055 M01/M04 A3002 RMK AO2 SLP168 T10061039 53006
Loading
Personal Weather Stations






























Interactive Weather Map New forecast layout! Learn more

10-Day Weather Forecast

Advertisements
Track Severe Weather on mobile